sensor_id;sensor_type;location;lat;lon;timestamp;P1;durP1;ratioP1;P2;durP2;ratioP2
76617;SDS011;65509;42.816;74.648;2023-04-24T00:01:11;23.08;;;6.93;;
76617;SDS011;65509;42.816;74.648;2023-04-24T00:03:38;25.05;;;6.38;;
76617;SDS011;65509;42.816;74.648;2023-04-24T00:06:04;23.95;;;5.97;;
76617;SDS011;65509;42.816;74.648;2023-04-24T00:08:30;26.38;;;6.13;;
76617;SDS011;65509;42.816;74.648;2023-04-24T00:10:55;19.52;;;5.88;;
76617;SDS011;65509;42.816;74.648;2023-04-24T00:13:21;20.42;;;6.53;;
76617;SDS011;65509;42.816;74.648;2023-04-24T00:15:46;16.90;;;4.57;;
76617;SDS011;65509;42.816;74.648;2023-04-24T00:18:12;17.13;;;5.63;;
76617;SDS011;65509;42.816;74.648;2023-04-24T00:20:38;22.00;;;6.00;;
76617;SDS011;65509;42.816;74.648;2023-04-24T00:23:04;12.60;;;4.45;;
76617;SDS011;65509;42.816;74.648;2023-04-24T00:25:30;19.38;;;5.72;;
76617;SDS011;65509;42.816;74.648;2023-04-24T00:27:55;24.25;;;6.70;;
76617;SDS011;65509;42.816;74.648;2023-04-24T00:30:21;19.08;;;6.63;;
76617;SDS011;65509;42.816;74.648;2023-04-24T00:32:46;23.77;;;7.22;;
76617;SDS011;65509;42.816;74.648;2023-04-24T00:35:12;16.77;;;6.18;;
76617;SDS011;65509;42.816;74.648;2023-04-24T00:37:37;20.40;;;6.35;;
76617;SDS011;65509;42.816;74.648;2023-04-24T00:40:03;21.98;;;8.15;;
76617;SDS011;65509;42.816;74.648;2023-04-24T00:42:28;23.65;;;8.52;;
76617;SDS011;65509;42.816;74.648;2023-04-24T00:44:54;19.98;;;7.05;;
76617;SDS011;65509;42.816;74.648;2023-04-24T00:47:21;18.55;;;6.82;;
76617;SDS011;65509;42.816;74.648;2023-04-24T00:49:47;19.52;;;7.20;;
76617;SDS011;65509;42.816;74.648;2023-04-24T00:52:12;19.65;;;6.47;;
76617;SDS011;65509;42.816;74.648;2023-04-24T00:54:45;29.75;;;9.00;;
76617;SDS011;65509;42.816;74.648;2023-04-24T00:57:10;22.02;;;8.57;;
76617;SDS011;65509;42.816;74.648;2023-04-24T00:59:36;21.80;;;7.78;;
76617;SDS011;65509;42.816;74.648;2023-04-24T01:02:02;15.70;;;7.18;;
76617;SDS011;65509;42.816;74.648;2023-04-24T01:04:28;16.33;;;7.35;;
76617;SDS011;65509;42.816;74.648;2023-04-24T01:06:54;21.60;;;6.88;;
76617;SDS011;65509;42.816;74.648;2023-04-24T01:09:21;34.53;;;9.02;;
76617;SDS011;65509;42.816;74.648;2023-04-24T01:11:47;24.67;;;8.10;;
76617;SDS011;65509;42.816;74.648;2023-04-24T01:14:12;15.93;;;6.57;;
76617;SDS011;65509;42.816;74.648;2023-04-24T01:16:37;22.77;;;7.28;;
76617;SDS011;65509;42.816;74.648;2023-04-24T01:19:03;15.50;;;5.28;;
76617;SDS011;65509;42.816;74.648;2023-04-24T01:21:29;15.20;;;5.80;;
76617;SDS011;65509;42.816;74.648;2023-04-24T01:23:55;19.30;;;6.55;;
76617;SDS011;65509;42.816;74.648;2023-04-24T01:26:22;19.33;;;6.38;;
76617;SDS011;65509;42.816;74.648;2023-04-24T01:28:47;17.90;;;5.93;;
76617;SDS011;65509;42.816;74.648;2023-04-24T01:31:13;22.83;;;6.55;;
76617;SDS011;65509;42.816;74.648;2023-04-24T01:33:40;26.92;;;6.68;;
76617;SDS011;65509;42.816;74.648;2023-04-24T01:36:06;33.40;;;7.15;;
76617;SDS011;65509;42.816;74.648;2023-04-24T01:38:32;49.40;;;6.75;;
76617;SDS011;65509;42.816;74.648;2023-04-24T01:40:58;24.95;;;6.05;;
76617;SDS011;65509;42.816;74.648;2023-04-24T01:43:23;32.90;;;5.72;;
76617;SDS011;65509;42.816;74.648;2023-04-24T01:45:49;38.35;;;5.57;;
76617;SDS011;65509;42.816;74.648;2023-04-24T01:48:14;26.35;;;5.47;;
76617;SDS011;65509;42.816;74.648;2023-04-24T01:50:40;40.65;;;6.47;;
76617;SDS011;65509;42.816;74.648;2023-04-24T01:53:05;33.47;;;6.57;;
76617;SDS011;65509;42.816;74.648;2023-04-24T01:55:31;26.42;;;7.13;;
76617;SDS011;65509;42.816;74.648;2023-04-24T01:57:56;21.60;;;5.88;;
76617;SDS011;65509;42.816;74.648;2023-04-24T02:00:22;42.10;;;6.80;;
76617;SDS011;65509;42.816;74.648;2023-04-24T02:02:48;24.20;;;5.22;;
76617;SDS011;65509;42.816;74.648;2023-04-24T02:05:13;15.75;;;4.43;;
76617;SDS011;65509;42.816;74.648;2023-04-24T02:07:39;20.23;;;4.13;;
76617;SDS011;65509;42.816;74.648;2023-04-24T02:10:05;15.77;;;5.80;;
76617;SDS011;65509;42.816;74.648;2023-04-24T02:12:31;30.95;;;6.15;;
76617;SDS011;65509;42.816;74.648;2023-04-24T02:14:56;15.75;;;4.47;;
76617;SDS011;65509;42.816;74.648;2023-04-24T02:17:21;12.93;;;4.32;;
76617;SDS011;65509;42.816;74.648;2023-04-24T02:19:47;18.58;;;4.32;;
76617;SDS011;65509;42.816;74.648;2023-04-24T02:22:13;16.42;;;4.28;;
76617;SDS011;65509;42.816;74.648;2023-04-24T02:24:38;21.88;;;5.07;;
76617;SDS011;65509;42.816;74.648;2023-04-24T02:27:04;22.00;;;4.00;;
76617;SDS011;65509;42.816;74.648;2023-04-24T02:29:30;13.82;;;3.33;;
76617;SDS011;65509;42.816;74.648;2023-04-24T02:31:55;9.27;;;2.47;;
76617;SDS011;65509;42.816;74.648;2023-04-24T02:34:21;24.20;;;3.40;;
76617;SDS011;65509;42.816;74.648;2023-04-24T02:36:46;24.73;;;3.13;;
76617;SDS011;65509;42.816;74.648;2023-04-24T02:39:11;21.30;;;3.78;;
76617;SDS011;65509;42.816;74.648;2023-04-24T02:41:38;18.88;;;3.85;;
76617;SDS011;65509;42.816;74.648;2023-04-24T02:44:03;12.20;;;2.83;;
76617;SDS011;65509;42.816;74.648;2023-04-24T02:46:29;11.30;;;3.03;;
76617;SDS011;65509;42.816;74.648;2023-04-24T02:48:54;13.07;;;2.88;;
76617;SDS011;65509;42.816;74.648;2023-04-24T02:51:20;13.63;;;3.20;;
76617;SDS011;65509;42.816;74.648;2023-04-24T02:53:45;11.82;;;3.10;;
76617;SDS011;65509;42.816;74.648;2023-04-24T02:56:11;13.63;;;2.92;;
76617;SDS011;65509;42.816;74.648;2023-04-24T02:58:39;15.13;;;3.50;;
76617;SDS011;65509;42.816;74.648;2023-04-24T03:01:05;16.58;;;3.50;;
76617;SDS011;65509;42.816;74.648;2023-04-24T03:03:31;14.25;;;3.17;;
76617;SDS011;65509;42.816;74.648;2023-04-24T03:05:56;10.68;;;3.25;;
76617;SDS011;65509;42.816;74.648;2023-04-24T03:08:22;16.67;;;4.22;;
76617;SDS011;65509;42.816;74.648;2023-04-24T03:10:48;14.10;;;5.85;;
76617;SDS011;65509;42.816;74.648;2023-04-24T03:13:13;20.30;;;5.53;;
76617;SDS011;65509;42.816;74.648;2023-04-24T03:15:39;15.82;;;5.38;;
76617;SDS011;65509;42.816;74.648;2023-04-24T03:18:04;16.00;;;5.95;;
76617;SDS011;65509;42.816;74.648;2023-04-24T03:20:36;19.77;;;7.32;;
76617;SDS011;65509;42.816;74.648;2023-04-24T03:23:02;14.95;;;4.70;;
76617;SDS011;65509;42.816;74.648;2023-04-24T03:25:28;16.00;;;6.93;;
76617;SDS011;65509;42.816;74.648;2023-04-24T03:27:53;22.25;;;7.90;;
76617;SDS011;65509;42.816;74.648;2023-04-24T03:30:20;22.63;;;12.57;;
76617;SDS011;65509;42.816;74.648;2023-04-24T03:32:45;15.45;;;6.20;;
76617;SDS011;65509;42.816;74.648;2023-04-24T03:35:11;12.68;;;3.90;;
76617;SDS011;65509;42.816;74.648;2023-04-24T03:37:36;11.98;;;3.42;;
76617;SDS011;65509;42.816;74.648;2023-04-24T03:40:02;10.10;;;2.80;;
76617;SDS011;65509;42.816;74.648;2023-04-24T03:42:27;12.48;;;2.88;;
76617;SDS011;65509;42.816;74.648;2023-04-24T03:44:53;11.95;;;2.97;;
76617;SDS011;65509;42.816;74.648;2023-04-24T03:47:18;11.75;;;3.47;;
76617;SDS011;65509;42.816;74.648;2023-04-24T03:49:44;13.95;;;3.55;;
76617;SDS011;65509;42.816;74.648;2023-04-24T03:52:09;21.15;;;3.33;;
76617;SDS011;65509;42.816;74.648;2023-04-24T03:54:35;11.98;;;2.90;;
76617;SDS011;65509;42.816;74.648;2023-04-24T03:57:00;8.93;;;3.10;;
76617;SDS011;65509;42.816;74.648;2023-04-24T03:59:26;17.02;;;3.58;;
76617;SDS011;65509;42.816;74.648;2023-04-24T04:01:51;16.13;;;4.15;;
76617;SDS011;65509;42.816;74.648;2023-04-24T04:04:17;12.45;;;3.20;;
76617;SDS011;65509;42.816;74.648;2023-04-24T04:06:42;11.55;;;3.42;;
76617;SDS011;65509;42.816;74.648;2023-04-24T04:09:09;8.43;;;2.63;;
76617;SDS011;65509;42.816;74.648;2023-04-24T04:11:35;15.25;;;4.03;;
76617;SDS011;65509;42.816;74.648;2023-04-24T04:14:00;13.43;;;3.20;;
76617;SDS011;65509;42.816;74.648;2023-04-24T04:16:26;12.63;;;3.55;;
76617;SDS011;65509;42.816;74.648;2023-04-24T04:18:55;23.10;;;4.22;;
76617;SDS011;65509;42.816;74.648;2023-04-24T04:21:20;16.33;;;3.30;;
76617;SDS011;65509;42.816;74.648;2023-04-24T04:23:46;20.40;;;3.97;;
76617;SDS011;65509;42.816;74.648;2023-04-24T04:26:11;14.10;;;3.35;;
76617;SDS011;65509;42.816;74.648;2023-04-24T04:28:38;18.10;;;3.70;;
76617;SDS011;65509;42.816;74.648;2023-04-24T04:31:04;17.02;;;3.47;;
76617;SDS011;65509;42.816;74.648;2023-04-24T04:33:29;17.83;;;3.67;;
76617;SDS011;65509;42.816;74.648;2023-04-24T04:35:56;21.90;;;4.00;;
76617;SDS011;65509;42.816;74.648;2023-04-24T04:38:23;17.02;;;3.58;;
76617;SDS011;65509;42.816;74.648;2023-04-24T04:40:49;16.05;;;3.63;;
76617;SDS011;65509;42.816;74.648;2023-04-24T04:43:14;17.85;;;4.03;;
76617;SDS011;65509;42.816;74.648;2023-04-24T04:45:41;22.67;;;3.88;;
76617;SDS011;65509;42.816;74.648;2023-04-24T04:48:08;24.65;;;4.57;;
76617;SDS011;65509;42.816;74.648;2023-04-24T04:50:35;18.23;;;3.53;;
76617;SDS011;65509;42.816;74.648;2023-04-24T04:53:00;18.08;;;3.67;;
76617;SDS011;65509;42.816;74.648;2023-04-24T04:55:26;28.98;;;5.40;;
76617;SDS011;65509;42.816;74.648;2023-04-24T04:57:51;17.15;;;3.45;;
76617;SDS011;65509;42.816;74.648;2023-04-24T05:00:17;16.80;;;3.58;;
76617;SDS011;65509;42.816;74.648;2023-04-24T05:02:43;17.40;;;3.90;;
76617;SDS011;65509;42.816;74.648;2023-04-24T05:05:08;21.92;;;4.00;;
76617;SDS011;65509;42.816;74.648;2023-04-24T05:07:35;16.20;;;3.67;;
76617;SDS011;65509;42.816;74.648;2023-04-24T05:10:01;23.27;;;4.28;;
76617;SDS011;65509;42.816;74.648;2023-04-24T05:12:26;17.70;;;4.03;;
76617;SDS011;65509;42.816;74.648;2023-04-24T05:14:53;9.65;;;2.58;;
76617;SDS011;65509;42.816;74.648;2023-04-24T05:17:19;15.13;;;3.22;;
76617;SDS011;65509;42.816;74.648;2023-04-24T05:19:49;24.88;;;3.70;;
76617;SDS011;65509;42.816;74.648;2023-04-24T05:22:34;14.75;;;3.00;;
76617;SDS011;65509;42.816;74.648;2023-04-24T05:25:09;11.80;;;2.70;;
76617;SDS011;65509;42.816;74.648;2023-04-24T05:27:34;23.27;;;3.72;;
76617;SDS011;65509;42.816;74.648;2023-04-24T05:30:00;18.13;;;3.15;;
76617;SDS011;65509;42.816;74.648;2023-04-24T05:32:28;18.95;;;3.58;;
76617;SDS011;65509;42.816;74.648;2023-04-24T05:34:53;12.40;;;2.70;;
76617;SDS011;65509;42.816;74.648;2023-04-24T05:37:19;18.98;;;3.42;;
76617;SDS011;65509;42.816;74.648;2023-04-24T05:39:44;15.90;;;3.17;;
76617;SDS011;65509;42.816;74.648;2023-04-24T05:42:09;17.90;;;3.63;;
76617;SDS011;65509;42.816;74.648;2023-04-24T05:44:35;16.85;;;3.50;;
76617;SDS011;65509;42.816;74.648;2023-04-24T05:47:03;16.05;;;3.55;;
76617;SDS011;65509;42.816;74.648;2023-04-24T05:49:29;22.83;;;4.75;;
76617;SDS011;65509;42.816;74.648;2023-04-24T05:51:54;14.10;;;3.10;;
76617;SDS011;65509;42.816;74.648;2023-04-24T05:54:20;19.60;;;3.72;;
76617;SDS011;65509;42.816;74.648;2023-04-24T05:56:49;13.07;;;2.97;;
76617;SDS011;65509;42.816;74.648;2023-04-24T05:59:15;21.25;;;3.50;;
76617;SDS011;65509;42.816;74.648;2023-04-24T06:01:40;16.23;;;3.45;;
76617;SDS011;65509;42.816;74.648;2023-04-24T06:04:07;18.17;;;2.90;;
76617;SDS011;65509;42.816;74.648;2023-04-24T06:06:32;16.58;;;3.58;;
76617;SDS011;65509;42.816;74.648;2023-04-24T06:08:58;17.73;;;3.63;;
76617;SDS011;65509;42.816;74.648;2023-04-24T06:11:24;25.70;;;4.13;;
76617;SDS011;65509;42.816;74.648;2023-04-24T06:13:50;14.95;;;3.35;;
76617;SDS011;65509;42.816;74.648;2023-04-24T06:16:15;14.60;;;3.88;;
76617;SDS011;65509;42.816;74.648;2023-04-24T06:18:41;24.23;;;5.18;;
76617;SDS011;65509;42.816;74.648;2023-04-24T06:21:06;27.65;;;5.10;;
76617;SDS011;65509;42.816;74.648;2023-04-24T06:23:31;25.10;;;5.00;;
76617;SDS011;65509;42.816;74.648;2023-04-24T06:25:58;24.17;;;5.72;;
76617;SDS011;65509;42.816;74.648;2023-04-24T06:28:24;27.80;;;4.88;;
76617;SDS011;65509;42.816;74.648;2023-04-24T06:30:49;24.10;;;4.63;;
76617;SDS011;65509;42.816;74.648;2023-04-24T06:33:15;22.08;;;5.40;;
76617;SDS011;65509;42.816;74.648;2023-04-24T06:35:41;33.55;;;7.50;;
76617;SDS011;65509;42.816;74.648;2023-04-24T06:38:06;22.85;;;5.43;;
76617;SDS011;65509;42.816;74.648;2023-04-24T06:40:32;27.83;;;5.78;;
76617;SDS011;65509;42.816;74.648;2023-04-24T06:42:58;43.08;;;7.95;;
76617;SDS011;65509;42.816;74.648;2023-04-24T06:45:25;32.03;;;6.35;;
76617;SDS011;65509;42.816;74.648;2023-04-24T06:47:50;33.67;;;6.82;;
76617;SDS011;65509;42.816;74.648;2023-04-24T06:50:19;42.63;;;5.97;;
76617;SDS011;65509;42.816;74.648;2023-04-24T06:52:44;20.38;;;5.40;;
76617;SDS011;65509;42.816;74.648;2023-04-24T06:55:14;24.70;;;5.68;;
76617;SDS011;65509;42.816;74.648;2023-04-24T06:57:41;32.28;;;6.88;;
76617;SDS011;65509;42.816;74.648;2023-04-24T07:00:07;27.42;;;4.97;;
76617;SDS011;65509;42.816;74.648;2023-04-24T07:02:34;25.08;;;5.57;;
76617;SDS011;65509;42.816;74.648;2023-04-24T07:05:00;26.58;;;5.47;;
76617;SDS011;65509;42.816;74.648;2023-04-24T07:07:28;25.45;;;5.93;;
76617;SDS011;65509;42.816;74.648;2023-04-24T07:09:54;17.63;;;4.32;;
76617;SDS011;65509;42.816;74.648;2023-04-24T07:12:21;24.48;;;4.43;;
76617;SDS011;65509;42.816;74.648;2023-04-24T07:14:47;23.45;;;4.43;;
76617;SDS011;65509;42.816;74.648;2023-04-24T07:17:13;21.08;;;4.30;;
76617;SDS011;65509;42.816;74.648;2023-04-24T07:19:38;19.23;;;3.90;;
76617;SDS011;65509;42.816;74.648;2023-04-24T07:22:03;22.52;;;4.35;;
76617;SDS011;65509;42.816;74.648;2023-04-24T07:24:29;35.83;;;4.65;;
76617;SDS011;65509;42.816;74.648;2023-04-24T07:26:57;21.33;;;4.00;;
76617;SDS011;65509;42.816;74.648;2023-04-24T07:29:22;16.55;;;3.78;;
76617;SDS011;65509;42.816;74.648;2023-04-24T07:31:48;21.55;;;4.43;;
76617;SDS011;65509;42.816;74.648;2023-04-24T07:34:16;28.40;;;4.75;;
76617;SDS011;65509;42.816;74.648;2023-04-24T07:36:41;27.48;;;5.47;;
76617;SDS011;65509;42.816;74.648;2023-04-24T07:39:07;28.38;;;5.30;;
76617;SDS011;65509;42.816;74.648;2023-04-24T07:41:33;44.67;;;6.43;;
76617;SDS011;65509;42.816;74.648;2023-04-24T07:43:58;29.75;;;5.35;;
76617;SDS011;65509;42.816;74.648;2023-04-24T07:46:24;25.80;;;4.60;;
76617;SDS011;65509;42.816;74.648;2023-04-24T07:48:50;24.50;;;5.18;;
76617;SDS011;65509;42.816;74.648;2023-04-24T07:51:18;24.98;;;5.20;;
76617;SDS011;65509;42.816;74.648;2023-04-24T07:53:43;21.75;;;4.00;;
76617;SDS011;65509;42.816;74.648;2023-04-24T07:56:09;24.27;;;4.72;;
76617;SDS011;65509;42.816;74.648;2023-04-24T07:58:34;31.50;;;5.53;;
76617;SDS011;65509;42.816;74.648;2023-04-24T08:01:00;27.08;;;4.78;;
76617;SDS011;65509;42.816;74.648;2023-04-24T08:03:25;23.30;;;5.07;;
76617;SDS011;65509;42.816;74.648;2023-04-24T08:05:51;23.65;;;4.90;;
76617;SDS011;65509;42.816;74.648;2023-04-24T08:08:16;23.92;;;4.93;;
76617;SDS011;65509;42.816;74.648;2023-04-24T08:10:42;36.58;;;5.32;;
76617;SDS011;65509;42.816;74.648;2023-04-24T08:13:08;37.75;;;4.85;;
76617;SDS011;65509;42.816;74.648;2023-04-24T08:15:33;25.65;;;4.68;;
76617;SDS011;65509;42.816;74.648;2023-04-24T08:17:59;17.65;;;4.15;;
76617;SDS011;65509;42.816;74.648;2023-04-24T08:20:24;34.50;;;5.68;;
76617;SDS011;65509;42.816;74.648;2023-04-24T08:22:50;27.48;;;4.90;;
76617;SDS011;65509;42.816;74.648;2023-04-24T08:25:15;26.35;;;5.15;;
76617;SDS011;65509;42.816;74.648;2023-04-24T08:27:41;27.20;;;5.20;;
76617;SDS011;65509;42.816;74.648;2023-04-24T08:30:07;23.17;;;4.05;;
76617;SDS011;65509;42.816;74.648;2023-04-24T08:32:32;24.85;;;4.90;;
76617;SDS011;65509;42.816;74.648;2023-04-24T08:34:58;31.23;;;4.97;;
76617;SDS011;65509;42.816;74.648;2023-04-24T08:37:24;23.63;;;4.78;;
76617;SDS011;65509;42.816;74.648;2023-04-24T08:39:50;32.88;;;6.15;;
76617;SDS011;65509;42.816;74.648;2023-04-24T08:42:19;25.08;;;4.85;;
76617;SDS011;65509;42.816;74.648;2023-04-24T08:44:44;23.85;;;5.03;;
76617;SDS011;65509;42.816;74.648;2023-04-24T08:47:13;20.58;;;3.95;;
76617;SDS011;65509;42.816;74.648;2023-04-24T08:49:40;35.88;;;5.75;;
76617;SDS011;65509;42.816;74.648;2023-04-24T08:52:05;21.00;;;3.60;;
76617;SDS011;65509;42.816;74.648;2023-04-24T08:54:31;19.80;;;4.55;;
76617;SDS011;65509;42.816;74.648;2023-04-24T08:56:58;18.92;;;3.75;;
76617;SDS011;65509;42.816;74.648;2023-04-24T08:59:24;22.10;;;4.20;;
76617;SDS011;65509;42.816;74.648;2023-04-24T09:01:49;26.92;;;4.68;;
76617;SDS011;65509;42.816;74.648;2023-04-24T09:04:16;21.83;;;5.95;;
76617;SDS011;65509;42.816;74.648;2023-04-24T09:06:45;26.58;;;5.88;;
76617;SDS011;65509;42.816;74.648;2023-04-24T09:09:10;32.30;;;7.22;;
76617;SDS011;65509;42.816;74.648;2023-04-24T09:11:36;24.52;;;5.57;;
76617;SDS011;65509;42.816;74.648;2023-04-24T09:14:02;29.10;;;6.57;;
76617;SDS011;65509;42.816;74.648;2023-04-24T09:16:28;31.63;;;4.85;;
76617;SDS011;65509;42.816;74.648;2023-04-24T09:18:54;40.55;;;5.28;;
76617;SDS011;65509;42.816;74.648;2023-04-24T09:21:21;24.63;;;4.70;;
76617;SDS011;65509;42.816;74.648;2023-04-24T09:23:47;36.92;;;5.13;;
76617;SDS011;65509;42.816;74.648;2023-04-24T09:26:22;23.45;;;6.05;;
76617;SDS011;65509;42.816;74.648;2023-04-24T09:28:47;35.03;;;5.32;;
76617;SDS011;65509;42.816;74.648;2023-04-24T09:31:14;27.52;;;5.55;;
76617;SDS011;65509;42.816;74.648;2023-04-24T09:33:45;41.60;;;7.25;;
76617;SDS011;65509;42.816;74.648;2023-04-24T09:36:18;53.00;;;6.72;;
76617;SDS011;65509;42.816;74.648;2023-04-24T09:38:46;29.08;;;5.78;;
76617;SDS011;65509;42.816;74.648;2023-04-24T09:41:13;33.25;;;5.28;;
76617;SDS011;65509;42.816;74.648;2023-04-24T09:43:38;39.20;;;6.75;;
76617;SDS011;65509;42.816;74.648;2023-04-24T09:46:07;37.25;;;6.10;;
76617;SDS011;65509;42.816;74.648;2023-04-24T09:48:37;61.00;;;7.10;;
76617;SDS011;65509;42.816;74.648;2023-04-24T09:51:04;31.85;;;5.53;;
76617;SDS011;65509;42.816;74.648;2023-04-24T09:53:32;44.90;;;5.78;;
76617;SDS011;65509;42.816;74.648;2023-04-24T09:56:06;41.17;;;5.68;;
76617;SDS011;65509;42.816;74.648;2023-04-24T09:58:32;42.17;;;6.22;;
76617;SDS011;65509;42.816;74.648;2023-04-24T10:01:00;44.63;;;5.75;;
76617;SDS011;65509;42.816;74.648;2023-04-24T10:03:26;61.88;;;7.45;;
76617;SDS011;65509;42.816;74.648;2023-04-24T10:06:03;48.65;;;6.40;;
76617;SDS011;65509;42.816;74.648;2023-04-24T10:08:34;34.83;;;5.65;;
76617;SDS011;65509;42.816;74.648;2023-04-24T10:11:00;34.38;;;6.28;;
76617;SDS011;65509;42.816;74.648;2023-04-24T10:13:26;43.15;;;6.50;;
76617;SDS011;65509;42.816;74.648;2023-04-24T10:15:56;37.97;;;6.68;;
76617;SDS011;65509;42.816;74.648;2023-04-24T10:18:21;41.97;;;7.20;;
76617;SDS011;65509;42.816;74.648;2023-04-24T10:20:47;41.95;;;7.05;;
76617;SDS011;65509;42.816;74.648;2023-04-24T10:23:12;36.08;;;6.32;;
76617;SDS011;65509;42.816;74.648;2023-04-24T10:25:38;31.65;;;5.78;;
76617;SDS011;65509;42.816;74.648;2023-04-24T10:28:04;41.78;;;5.70;;
76617;SDS011;65509;42.816;74.648;2023-04-24T10:30:31;30.35;;;5.53;;
76617;SDS011;65509;42.816;74.648;2023-04-24T10:33:00;30.77;;;5.07;;
76617;SDS011;65509;42.816;74.648;2023-04-24T10:35:26;27.45;;;4.82;;
76617;SDS011;65509;42.816;74.648;2023-04-24T10:37:59;32.50;;;5.55;;
76617;SDS011;65509;42.816;74.648;2023-04-24T10:40:29;41.45;;;5.10;;
76617;SDS011;65509;42.816;74.648;2023-04-24T10:42:55;47.10;;;9.82;;
76617;SDS011;65509;42.816;74.648;2023-04-24T10:45:24;33.17;;;4.50;;
76617;SDS011;65509;42.816;74.648;2023-04-24T10:48:03;36.85;;;6.05;;
76617;SDS011;65509;42.816;74.648;2023-04-24T10:50:44;28.45;;;4.88;;
76617;SDS011;65509;42.816;74.648;2023-04-24T10:53:17;31.10;;;5.57;;
76617;SDS011;65509;42.816;74.648;2023-04-24T10:55:47;36.72;;;6.50;;
76617;SDS011;65509;42.816;74.648;2023-04-24T10:58:13;23.80;;;4.45;;
76617;SDS011;65509;42.816;74.648;2023-04-24T11:00:40;40.63;;;5.47;;
76617;SDS011;65509;42.816;74.648;2023-04-24T11:03:06;19.02;;;4.10;;
76617;SDS011;65509;42.816;74.648;2023-04-24T11:05:52;21.73;;;4.50;;
76617;SDS011;65509;42.816;74.648;2023-04-24T11:08:25;34.85;;;4.55;;
76617;SDS011;65509;42.816;74.648;2023-04-24T11:10:55;36.65;;;6.57;;
76617;SDS011;65509;42.816;74.648;2023-04-24T11:13:24;29.98;;;5.03;;
76617;SDS011;65509;42.816;74.648;2023-04-24T11:21:02;29.53;;;4.67;;
76617;SDS011;65509;42.816;74.648;2023-04-24T11:23:37;33.00;;;5.57;;
76617;SDS011;65509;42.816;74.648;2023-04-24T11:26:21;28.90;;;4.95;;
76617;SDS011;65509;42.816;74.648;2023-04-24T11:28:50;27.98;;;5.40;;
76617;SDS011;65509;42.816;74.648;2023-04-24T11:31:34;32.17;;;5.05;;
76617;SDS011;65509;42.816;74.648;2023-04-24T11:34:07;31.95;;;4.82;;
76617;SDS011;65509;42.816;74.648;2023-04-24T11:36:33;22.95;;;5.03;;
76617;SDS011;65509;42.816;74.648;2023-04-24T11:38:59;22.25;;;5.35;;
76617;SDS011;65509;42.816;74.648;2023-04-24T11:41:25;15.43;;;3.90;;
76617;SDS011;65509;42.816;74.648;2023-04-24T11:43:51;39.47;;;6.88;;
76617;SDS011;65509;42.816;74.648;2023-04-24T11:46:17;15.15;;;4.07;;
76617;SDS011;65509;42.816;74.648;2023-04-24T11:48:45;32.55;;;6.57;;
76617;SDS011;65509;42.816;74.648;2023-04-24T11:51:12;25.15;;;4.75;;
76617;SDS011;65509;42.816;74.648;2023-04-24T11:53:37;25.70;;;7.75;;
76617;SDS011;65509;42.816;74.648;2023-04-24T11:56:03;14.18;;;3.20;;
76617;SDS011;65509;42.816;74.648;2023-04-24T11:58:34;20.00;;;3.75;;
76617;SDS011;65509;42.816;74.648;2023-04-24T12:00:59;14.30;;;3.10;;
76617;SDS011;65509;42.816;74.648;2023-04-24T12:03:26;15.98;;;2.85;;
76617;SDS011;65509;42.816;74.648;2023-04-24T12:06:10;18.60;;;4.13;;
76617;SDS011;65509;42.816;74.648;2023-04-24T12:08:36;13.68;;;3.28;;
76617;SDS011;65509;42.816;74.648;2023-04-24T12:11:05;15.70;;;3.28;;
76617;SDS011;65509;42.816;74.648;2023-04-24T12:13:34;23.80;;;3.50;;
76617;SDS011;65509;42.816;74.648;2023-04-24T12:16:03;84.63;;;6.78;;
76617;SDS011;65509;42.816;74.648;2023-04-24T12:18:30;103.75;;;9.48;;
76617;SDS011;65509;42.816;74.648;2023-04-24T12:21:01;60.22;;;5.95;;
76617;SDS011;65509;42.816;74.648;2023-04-24T12:23:42;14.02;;;2.22;;
76617;SDS011;65509;42.816;74.648;2023-04-24T12:26:07;24.67;;;2.67;;
76617;SDS011;65509;42.816;74.648;2023-04-24T12:28:36;34.28;;;4.53;;
76617;SDS011;65509;42.816;74.648;2023-04-24T12:31:03;27.92;;;3.97;;
76617;SDS011;65509;42.816;74.648;2023-04-24T12:33:38;19.67;;;3.72;;
76617;SDS011;65509;42.816;74.648;2023-04-24T12:36:11;20.45;;;3.28;;
76617;SDS011;65509;42.816;74.648;2023-04-24T12:38:37;14.38;;;2.50;;
76617;SDS011;65509;42.816;74.648;2023-04-24T12:41:10;12.90;;;2.90;;
76617;SDS011;65509;42.816;74.648;2023-04-24T12:43:36;10.98;;;2.63;;
76617;SDS011;65509;42.816;74.648;2023-04-24T12:46:05;17.05;;;3.00;;
76617;SDS011;65509;42.816;74.648;2023-04-24T12:48:33;12.60;;;3.20;;
76617;SDS011;65509;42.816;74.648;2023-04-24T12:50:59;19.73;;;2.95;;
76617;SDS011;65509;42.816;74.648;2023-04-24T12:53:28;32.80;;;4.15;;
76617;SDS011;65509;42.816;74.648;2023-04-24T12:55:58;25.58;;;3.88;;
76617;SDS011;65509;42.816;74.648;2023-04-24T12:58:26;12.05;;;2.95;;
76617;SDS011;65509;42.816;74.648;2023-04-24T13:00:54;19.98;;;3.45;;
76617;SDS011;65509;42.816;74.648;2023-04-24T13:03:19;16.17;;;2.75;;
76617;SDS011;65509;42.816;74.648;2023-04-24T13:05:45;19.50;;;2.75;;
76617;SDS011;65509;42.816;74.648;2023-04-24T13:08:10;15.93;;;3.00;;
76617;SDS011;65509;42.816;74.648;2023-04-24T13:10:43;14.70;;;2.22;;
76617;SDS011;65509;42.816;74.648;2023-04-24T13:13:08;13.20;;;3.00;;
76617;SDS011;65509;42.816;74.648;2023-04-24T13:15:34;13.57;;;3.22;;
76617;SDS011;65509;42.816;74.648;2023-04-24T13:17:59;17.90;;;3.83;;
76617;SDS011;65509;42.816;74.648;2023-04-24T13:20:25;20.08;;;4.07;;
76617;SDS011;65509;42.816;74.648;2023-04-24T13:22:51;20.63;;;4.35;;
76617;SDS011;65509;42.816;74.648;2023-04-24T13:25:16;13.38;;;4.43;;
76617;SDS011;65509;42.816;74.648;2023-04-24T13:27:43;18.23;;;4.88;;
76617;SDS011;65509;42.816;74.648;2023-04-24T13:30:11;24.27;;;6.25;;
76617;SDS011;65509;42.816;74.648;2023-04-24T13:32:40;15.60;;;5.00;;
76617;SDS011;65509;42.816;74.648;2023-04-24T13:35:11;18.27;;;5.88;;
76617;SDS011;65509;42.816;74.648;2023-04-24T13:37:42;16.10;;;5.20;;
76617;SDS011;65509;42.816;74.648;2023-04-24T13:40:07;21.23;;;5.07;;
76617;SDS011;65509;42.816;74.648;2023-04-24T13:42:33;30.95;;;6.50;;
76617;SDS011;65509;42.816;74.648;2023-04-24T13:44:59;24.40;;;6.05;;
76617;SDS011;65509;42.816;74.648;2023-04-24T13:47:24;23.45;;;5.88;;
76617;SDS011;65509;42.816;74.648;2023-04-24T13:49:50;18.30;;;5.18;;
76617;SDS011;65509;42.816;74.648;2023-04-24T13:52:15;15.20;;;4.70;;
76617;SDS011;65509;42.816;74.648;2023-04-24T13:54:44;23.98;;;5.03;;
76617;SDS011;65509;42.816;74.648;2023-04-24T13:57:09;25.52;;;4.80;;
76617;SDS011;65509;42.816;74.648;2023-04-24T13:59:35;15.68;;;4.22;;
76617;SDS011;65509;42.816;74.648;2023-04-24T14:02:02;40.35;;;6.53;;
76617;SDS011;65509;42.816;74.648;2023-04-24T14:04:27;31.10;;;7.18;;
76617;SDS011;65509;42.816;74.648;2023-04-24T14:06:53;22.42;;;5.35;;
76617;SDS011;65509;42.816;74.648;2023-04-24T14:09:21;20.63;;;5.05;;
76617;SDS011;65509;42.816;74.648;2023-04-24T14:11:55;23.98;;;6.03;;
76617;SDS011;65509;42.816;74.648;2023-04-24T14:14:20;30.23;;;6.30;;
76617;SDS011;65509;42.816;74.648;2023-04-24T14:16:46;24.17;;;6.15;;
76617;SDS011;65509;42.816;74.648;2023-04-24T14:19:14;26.13;;;5.63;;
76617;SDS011;65509;42.816;74.648;2023-04-24T14:21:40;19.67;;;5.20;;
76617;SDS011;65509;42.816;74.648;2023-04-24T14:24:05;30.95;;;6.18;;